createdAt,value
2022-12-08T10:22:57.563Z,4.23
2022-12-08T10:33:02.837Z,4.23
2022-12-08T10:43:16.178Z,5.65
2022-12-08T10:53:27.373Z,5.48
2022-12-08T11:03:48.966Z,5.66
2022-12-08T11:13:55.317Z,5.57
2022-12-08T11:24:12.074Z,5.47
2022-12-08T11:34:24.174Z,5.45
2022-12-08T11:44:39.358Z,5.17
2022-12-08T11:54:49.721Z,4.99
2022-12-08T12:05:40.127Z,4.98
2022-12-08T12:16:08.835Z,4.64
2022-12-08T12:26:21.794Z,4.53
2022-12-08T12:36:28.159Z,4.32
2022-12-08T12:46:49.958Z,4.16
2022-12-08T12:57:14.293Z,4.17
2022-12-08T13:07:26.956Z,4.13
2022-12-08T13:17:35.441Z,4.15
2022-12-08T13:27:53.456Z,3.95
2022-12-08T13:38:00.375Z,4.08
2022-12-08T13:59:23.639Z,3.81
2022-12-08T14:09:38.583Z,3.95
2022-12-08T14:19:48.284Z,3.91
2022-12-08T14:29:57.312Z,3.86
2022-12-08T14:40:22.898Z,3.77
2022-12-08T14:50:46.292Z,3.42
2022-12-08T15:00:55.654Z,3.44
2022-12-08T15:11:23.765Z,3.33
2022-12-08T15:21:32.119Z,3.35
2022-12-08T15:31:38.586Z,3.28
2022-12-08T15:41:44.860Z,3.39
2022-12-08T15:51:56.576Z,3.45
2022-12-08T16:02:19.291Z,3.36
2022-12-08T16:23:34.603Z,3.34
2022-12-08T16:33:39.849Z,3.35
2022-12-08T16:43:46.072Z,3.10
2022-12-08T16:53:52.787Z,2.95
2022-12-08T17:14:25.439Z,3.10
2022-12-08T17:24:32.318Z,2.81
2022-12-08T17:34:38.629Z,2.84
2022-12-08T17:44:47.688Z,2.80
2022-12-08T17:54:53.966Z,2.95
2022-12-08T18:05:00.239Z,3.08
2022-12-08T18:15:08.530Z,3.00
2022-12-08T18:25:14.892Z,2.99
2022-12-08T18:35:21.512Z,3.07
2022-12-08T18:45:27.873Z,3.12
2022-12-08T18:55:34.162Z,3.07
2022-12-08T19:05:40.432Z,3.18
2022-12-08T19:15:46.737Z,3.16
2022-12-08T19:25:53.383Z,3.16
2022-12-08T19:35:59.680Z,3.10
2022-12-08T19:46:05.021Z,3.04
2022-12-08T19:56:11.423Z,3.09
2022-12-08T20:06:19.216Z,3.19
2022-12-08T20:16:25.697Z,3.21
2022-12-08T20:26:32.026Z,3.29
2022-12-08T20:36:38.406Z,3.25
2022-12-08T20:46:49.216Z,3.23
2022-12-08T20:56:56.105Z,3.21
2022-12-08T21:07:02.510Z,3.26
2022-12-08T21:17:09.322Z,3.25
2022-12-08T21:27:15.843Z,3.42
2022-12-08T21:37:22.245Z,3.24
2022-12-08T21:47:28.649Z,3.30
2022-12-08T21:57:35.885Z,3.28
2022-12-08T22:07:42.743Z,3.30
2022-12-08T22:17:49.480Z,3.27
2022-12-08T22:27:55.922Z,3.29
2022-12-08T22:38:02.225Z,3.24
2022-12-08T22:48:08.519Z,3.27
2022-12-08T22:58:15.385Z,3.28
2022-12-08T23:08:21.740Z,3.32
2022-12-08T23:18:28.123Z,3.30
2022-12-08T23:28:34.753Z,3.24
2022-12-08T23:38:41.541Z,3.31
2022-12-08T23:48:48.025Z,3.28
2022-12-08T23:58:54.548Z,3.28
